sensor_id;sensor_type;location;lat;lon;timestamp;P1;durP1;ratioP1;P2;durP2;ratioP2
12745;SDS011;6437;53.686;10.030;2023-02-01T00:02:40;31.65;;;4.80;;
12745;SDS011;6437;53.686;10.030;2023-02-01T00:05:42;44.80;;;5.03;;
12745;SDS011;6437;53.686;10.030;2023-02-01T00:08:43;42.40;;;4.13;;
12745;SDS011;6437;53.686;10.030;2023-02-01T00:11:47;39.22;;;3.80;;
12745;SDS011;6437;53.686;10.030;2023-02-01T00:14:48;43.20;;;5.60;;
12745;SDS011;6437;53.686;10.030;2023-02-01T00:17:52;34.67;;;4.78;;
12745;SDS011;6437;53.686;10.030;2023-02-01T00:20:54;37.67;;;5.20;;
12745;SDS011;6437;53.686;10.030;2023-02-01T00:23:56;51.13;;;5.95;;
12745;SDS011;6437;53.686;10.030;2023-02-01T00:26:59;36.17;;;5.10;;
12745;SDS011;6437;53.686;10.030;2023-02-01T00:30:01;54.50;;;6.05;;
12745;SDS011;6437;53.686;10.030;2023-02-01T00:33:03;44.08;;;4.55;;
12745;SDS011;6437;53.686;10.030;2023-02-01T00:36:06;53.65;;;7.07;;
12745;SDS011;6437;53.686;10.030;2023-02-01T00:39:09;47.88;;;5.95;;
12745;SDS011;6437;53.686;10.030;2023-02-01T00:42:12;61.20;;;6.15;;
12745;SDS011;6437;53.686;10.030;2023-02-01T00:45:14;44.78;;;4.47;;
12745;SDS011;6437;53.686;10.030;2023-02-01T00:48:16;48.38;;;5.95;;
12745;SDS011;6437;53.686;10.030;2023-02-01T00:51:19;46.22;;;4.88;;
12745;SDS011;6437;53.686;10.030;2023-02-01T00:54:23;50.35;;;5.78;;
12745;SDS011;6437;53.686;10.030;2023-02-01T00:57:26;52.53;;;5.88;;
12745;SDS011;6437;53.686;10.030;2023-02-01T01:00:28;51.75;;;6.47;;
12745;SDS011;6437;53.686;10.030;2023-02-01T01:03:30;55.00;;;5.47;;
12745;SDS011;6437;53.686;10.030;2023-02-01T01:06:34;51.95;;;6.60;;
12745;SDS011;6437;53.686;10.030;2023-02-01T01:09:35;45.22;;;7.28;;
12745;SDS011;6437;53.686;10.030;2023-02-01T01:12:39;47.72;;;6.93;;
12745;SDS011;6437;53.686;10.030;2023-02-01T01:15:40;40.15;;;6.35;;
12745;SDS011;6437;53.686;10.030;2023-02-01T01:18:42;49.83;;;7.15;;
12745;SDS011;6437;53.686;10.030;2023-02-01T01:21:44;43.03;;;6.90;;
12745;SDS011;6437;53.686;10.030;2023-02-01T01:24:46;52.00;;;6.65;;
12745;SDS011;6437;53.686;10.030;2023-02-01T01:27:49;48.63;;;7.75;;
12745;SDS011;6437;53.686;10.030;2023-02-01T01:30:51;68.93;;;7.07;;
12745;SDS011;6437;53.686;10.030;2023-02-01T01:33:54;60.38;;;7.22;;
12745;SDS011;6437;53.686;10.030;2023-02-01T01:36:57;57.00;;;7.35;;
12745;SDS011;6437;53.686;10.030;2023-02-01T01:39:59;54.85;;;6.88;;
12745;SDS011;6437;53.686;10.030;2023-02-01T01:43:02;56.70;;;6.55;;
12745;SDS011;6437;53.686;10.030;2023-02-01T01:46:04;67.82;;;9.18;;
12745;SDS011;6437;53.686;10.030;2023-02-01T01:49:06;47.80;;;7.28;;
12745;SDS011;6437;53.686;10.030;2023-02-01T01:52:11;56.28;;;7.07;;
12745;SDS011;6437;53.686;10.030;2023-02-01T01:55:35;64.05;;;7.50;;
12745;SDS011;6437;53.686;10.030;2023-02-01T01:58:45;48.63;;;5.97;;
12745;SDS011;6437;53.686;10.030;2023-02-01T02:01:46;53.90;;;6.78;;
12745;SDS011;6437;53.686;10.030;2023-02-01T02:04:48;57.10;;;6.68;;
12745;SDS011;6437;53.686;10.030;2023-02-01T02:07:50;55.40;;;6.40;;
12745;SDS011;6437;53.686;10.030;2023-02-01T02:10:57;51.40;;;7.10;;
12745;SDS011;6437;53.686;10.030;2023-02-01T02:14:03;48.42;;;7.05;;
12745;SDS011;6437;53.686;10.030;2023-02-01T02:17:19;46.00;;;7.20;;
12745;SDS011;6437;53.686;10.030;2023-02-01T02:20:37;61.47;;;8.02;;
12745;SDS011;6437;53.686;10.030;2023-02-01T02:24:02;44.90;;;7.20;;
12745;SDS011;6437;53.686;10.030;2023-02-01T02:27:24;51.13;;;6.57;;
12745;SDS011;6437;53.686;10.030;2023-02-01T02:30:40;57.47;;;7.90;;
12745;SDS011;6437;53.686;10.030;2023-02-01T02:34:04;56.28;;;7.60;;
12745;SDS011;6437;53.686;10.030;2023-02-01T02:37:15;62.45;;;8.18;;
12745;SDS011;6437;53.686;10.030;2023-02-01T02:40:25;45.15;;;8.38;;
12745;SDS011;6437;53.686;10.030;2023-02-01T02:43:34;61.03;;;7.70;;
12745;SDS011;6437;53.686;10.030;2023-02-01T02:47:02;53.63;;;8.30;;
12745;SDS011;6437;53.686;10.030;2023-02-01T02:50:29;41.45;;;6.43;;
12745;SDS011;6437;53.686;10.030;2023-02-01T02:53:56;53.92;;;7.72;;
12745;SDS011;6437;53.686;10.030;2023-02-01T02:57:20;46.15;;;4.97;;
12745;SDS011;6437;53.686;10.030;2023-02-01T03:04:03;36.95;;;5.53;;
12745;SDS011;6437;53.686;10.030;2023-02-01T03:07:15;45.42;;;5.60;;
12745;SDS011;6437;53.686;10.030;2023-02-01T03:10:37;31.10;;;5.15;;
12745;SDS011;6437;53.686;10.030;2023-02-01T03:13:45;54.20;;;6.63;;
12745;SDS011;6437;53.686;10.030;2023-02-01T03:16:53;40.70;;;4.72;;
12745;SDS011;6437;53.686;10.030;2023-02-01T03:19:59;40.38;;;4.45;;
12745;SDS011;6437;53.686;10.030;2023-02-01T03:23:06;27.75;;;4.15;;
12745;SDS011;6437;53.686;10.030;2023-02-01T03:26:09;43.92;;;4.93;;
12745;SDS011;6437;53.686;10.030;2023-02-01T03:29:16;37.08;;;5.10;;
12745;SDS011;6437;53.686;10.030;2023-02-01T03:32:22;40.03;;;5.03;;
12745;SDS011;6437;53.686;10.030;2023-02-01T03:35:29;43.95;;;5.68;;
12745;SDS011;6437;53.686;10.030;2023-02-01T03:38:37;37.63;;;4.68;;
12745;SDS011;6437;53.686;10.030;2023-02-01T03:41:43;45.97;;;4.25;;
12745;SDS011;6437;53.686;10.030;2023-02-01T03:44:49;43.15;;;6.07;;
12745;SDS011;6437;53.686;10.030;2023-02-01T03:47:56;47.78;;;5.72;;
12745;SDS011;6437;53.686;10.030;2023-02-01T03:51:00;43.60;;;4.25;;
12745;SDS011;6437;53.686;10.030;2023-02-01T03:54:06;35.25;;;3.70;;
12745;SDS011;6437;53.686;10.030;2023-02-01T03:57:13;24.80;;;2.42;;
12745;SDS011;6437;53.686;10.030;2023-02-01T04:00:20;20.73;;;3.08;;
12745;SDS011;6437;53.686;10.030;2023-02-01T04:03:24;32.22;;;3.42;;
12745;SDS011;6437;53.686;10.030;2023-02-01T04:06:27;37.60;;;5.00;;
12745;SDS011;6437;53.686;10.030;2023-02-01T04:09:30;27.30;;;3.42;;
12745;SDS011;6437;53.686;10.030;2023-02-01T04:12:32;38.60;;;4.40;;
12745;SDS011;6437;53.686;10.030;2023-02-01T04:15:34;44.53;;;3.15;;
12745;SDS011;6437;53.686;10.030;2023-02-01T04:18:35;31.65;;;3.38;;
12745;SDS011;6437;53.686;10.030;2023-02-01T04:21:37;38.40;;;4.30;;
12745;SDS011;6437;53.686;10.030;2023-02-01T04:24:40;37.03;;;4.28;;
12745;SDS011;6437;53.686;10.030;2023-02-01T04:27:42;27.30;;;3.05;;
12745;SDS011;6437;53.686;10.030;2023-02-01T04:30:44;18.55;;;2.17;;
12745;SDS011;6437;53.686;10.030;2023-02-01T04:33:47;17.30;;;1.33;;
12745;SDS011;6437;53.686;10.030;2023-02-01T04:36:48;32.20;;;3.28;;
12745;SDS011;6437;53.686;10.030;2023-02-01T04:39:51;29.88;;;3.67;;
12745;SDS011;6437;53.686;10.030;2023-02-01T04:42:53;25.63;;;2.63;;
12745;SDS011;6437;53.686;10.030;2023-02-01T04:45:55;43.40;;;5.07;;
12745;SDS011;6437;53.686;10.030;2023-02-01T04:48:57;32.72;;;3.78;;
12745;SDS011;6437;53.686;10.030;2023-02-01T04:51:58;22.38;;;1.77;;
12745;SDS011;6437;53.686;10.030;2023-02-01T04:55:02;30.63;;;2.55;;
12745;SDS011;6437;53.686;10.030;2023-02-01T05:01:05;18.45;;;1.08;;
12745;SDS011;6437;53.686;10.030;2023-02-01T05:04:08;20.40;;;1.35;;
12745;SDS011;6437;53.686;10.030;2023-02-01T05:07:10;12.35;;;0.80;;
12745;SDS011;6437;53.686;10.030;2023-02-01T05:10:13;21.20;;;1.42;;
12745;SDS011;6437;53.686;10.030;2023-02-01T05:13:15;22.45;;;1.48;;
12745;SDS011;6437;53.686;10.030;2023-02-01T05:16:34;15.63;;;1.15;;
12745;SDS011;6437;53.686;10.030;2023-02-01T05:19:36;21.83;;;1.52;;
12745;SDS011;6437;53.686;10.030;2023-02-01T05:22:38;21.52;;;3.08;;
12745;SDS011;6437;53.686;10.030;2023-02-01T05:25:41;13.27;;;1.35;;
12745;SDS011;6437;53.686;10.030;2023-02-01T05:28:43;14.40;;;1.02;;
12745;SDS011;6437;53.686;10.030;2023-02-01T05:31:45;15.50;;;0.95;;
12745;SDS011;6437;53.686;10.030;2023-02-01T05:34:48;14.38;;;0.55;;
12745;SDS011;6437;53.686;10.030;2023-02-01T05:37:49;7.57;;;0.70;;
12745;SDS011;6437;53.686;10.030;2023-02-01T05:40:52;7.43;;;0.63;;
12745;SDS011;6437;53.686;10.030;2023-02-01T05:43:54;16.38;;;0.50;;
12745;SDS011;6437;53.686;10.030;2023-02-01T05:46:56;7.32;;;0.65;;
12745;SDS011;6437;53.686;10.030;2023-02-01T05:49:58;3.53;;;0.15;;
12745;SDS011;6437;53.686;10.030;2023-02-01T05:53:00;2.17;;;0.30;;
12745;SDS011;6437;53.686;10.030;2023-02-01T05:56:03;4.07;;;0.30;;
12745;SDS011;6437;53.686;10.030;2023-02-01T05:59:05;7.07;;;0.20;;
12745;SDS011;6437;53.686;10.030;2023-02-01T06:02:07;9.55;;;0.50;;
12745;SDS011;6437;53.686;10.030;2023-02-01T06:05:10;9.23;;;0.75;;
12745;SDS011;6437;53.686;10.030;2023-02-01T06:08:11;12.38;;;1.33;;
12745;SDS011;6437;53.686;10.030;2023-02-01T06:11:15;3.38;;;0.47;;
12745;SDS011;6437;53.686;10.030;2023-02-01T06:14:17;4.15;;;0.40;;
12745;SDS011;6437;53.686;10.030;2023-02-01T06:17:18;5.85;;;0.30;;
12745;SDS011;6437;53.686;10.030;2023-02-01T06:20:20;8.68;;;0.40;;
12745;SDS011;6437;53.686;10.030;2023-02-01T06:23:23;5.45;;;0.30;;
12745;SDS011;6437;53.686;10.030;2023-02-01T06:26:26;5.22;;;0.22;;
12745;SDS011;6437;53.686;10.030;2023-02-01T06:29:29;8.07;;;0.65;;
12745;SDS011;6437;53.686;10.030;2023-02-01T06:32:30;13.00;;;0.90;;
12745;SDS011;6437;53.686;10.030;2023-02-01T06:35:32;3.63;;;0.40;;
12745;SDS011;6437;53.686;10.030;2023-02-01T06:38:34;8.45;;;0.70;;
12745;SDS011;6437;53.686;10.030;2023-02-01T06:41:37;12.75;;;0.85;;
12745;SDS011;6437;53.686;10.030;2023-02-01T06:44:39;10.65;;;0.75;;
12745;SDS011;6437;53.686;10.030;2023-02-01T06:47:41;10.10;;;1.08;;
12745;SDS011;6437;53.686;10.030;2023-02-01T06:50:43;5.60;;;0.52;;
12745;SDS011;6437;53.686;10.030;2023-02-01T06:53:45;9.80;;;0.77;;
12745;SDS011;6437;53.686;10.030;2023-02-01T06:56:48;18.00;;;1.40;;
12745;SDS011;6437;53.686;10.030;2023-02-01T06:59:49;15.57;;;0.77;;
12745;SDS011;6437;53.686;10.030;2023-02-01T07:02:51;19.38;;;1.65;;
12745;SDS011;6437;53.686;10.030;2023-02-01T07:05:54;13.30;;;1.02;;
12745;SDS011;6437;53.686;10.030;2023-02-01T07:08:58;30.30;;;1.58;;
12745;SDS011;6437;53.686;10.030;2023-02-01T07:12:02;25.13;;;2.63;;
12745;SDS011;6437;53.686;10.030;2023-02-01T07:15:04;17.63;;;2.85;;
12745;SDS011;6437;53.686;10.030;2023-02-01T07:18:07;25.10;;;2.97;;
12745;SDS011;6437;53.686;10.030;2023-02-01T07:21:09;39.22;;;3.45;;
12745;SDS011;6437;53.686;10.030;2023-02-01T07:24:10;35.20;;;3.40;;
12745;SDS011;6437;53.686;10.030;2023-02-01T07:27:14;38.60;;;4.85;;
12745;SDS011;6437;53.686;10.030;2023-02-01T07:30:15;33.75;;;4.57;;
12745;SDS011;6437;53.686;10.030;2023-02-01T07:33:18;30.40;;;4.25;;
12745;SDS011;6437;53.686;10.030;2023-02-01T07:36:21;52.17;;;5.15;;
12745;SDS011;6437;53.686;10.030;2023-02-01T07:39:23;48.00;;;4.90;;
12745;SDS011;6437;53.686;10.030;2023-02-01T07:42:26;41.95;;;6.18;;
12745;SDS011;6437;53.686;10.030;2023-02-01T07:45:27;42.10;;;5.38;;
12745;SDS011;6437;53.686;10.030;2023-02-01T07:48:29;37.35;;;4.18;;
12745;SDS011;6437;53.686;10.030;2023-02-01T07:51:31;45.60;;;5.80;;
12745;SDS011;6437;53.686;10.030;2023-02-01T07:54:33;45.75;;;4.47;;
12745;SDS011;6437;53.686;10.030;2023-02-01T08:00:40;52.15;;;4.38;;
12745;SDS011;6437;53.686;10.030;2023-02-01T08:03:59;44.03;;;6.05;;
12745;SDS011;6437;53.686;10.030;2023-02-01T08:07:02;52.10;;;6.20;;
12745;SDS011;6437;53.686;10.030;2023-02-01T08:10:04;33.45;;;4.35;;
12745;SDS011;6437;53.686;10.030;2023-02-01T08:13:12;36.70;;;6.38;;
12745;SDS011;6437;53.686;10.030;2023-02-01T08:16:14;33.08;;;4.45;;
12745;SDS011;6437;53.686;10.030;2023-02-01T08:22:19;43.35;;;6.45;;
12745;SDS011;6437;53.686;10.030;2023-02-01T08:25:21;56.03;;;5.13;;
12745;SDS011;6437;53.686;10.030;2023-02-01T08:28:25;49.13;;;4.85;;
12745;SDS011;6437;53.686;10.030;2023-02-01T08:31:27;45.80;;;6.97;;
12745;SDS011;6437;53.686;10.030;2023-02-01T08:34:30;41.05;;;4.65;;
12745;SDS011;6437;53.686;10.030;2023-02-01T08:37:32;48.75;;;4.97;;
12745;SDS011;6437;53.686;10.030;2023-02-01T08:40:34;50.35;;;4.97;;
12745;SDS011;6437;53.686;10.030;2023-02-01T08:43:37;52.90;;;4.03;;
12745;SDS011;6437;53.686;10.030;2023-02-01T08:46:40;35.30;;;4.32;;
12745;SDS011;6437;53.686;10.030;2023-02-01T08:49:41;38.90;;;4.68;;
12745;SDS011;6437;53.686;10.030;2023-02-01T08:52:43;38.42;;;4.38;;
12745;SDS011;6437;53.686;10.030;2023-02-01T08:55:45;23.58;;;3.22;;
12745;SDS011;6437;53.686;10.030;2023-02-01T08:58:49;22.85;;;2.92;;
12745;SDS011;6437;53.686;10.030;2023-02-01T09:01:50;26.05;;;4.32;;
12745;SDS011;6437;53.686;10.030;2023-02-01T09:04:52;26.55;;;2.30;;
12745;SDS011;6437;53.686;10.030;2023-02-01T09:07:54;29.90;;;2.83;;
12745;SDS011;6437;53.686;10.030;2023-02-01T09:10:58;34.72;;;3.83;;
12745;SDS011;6437;53.686;10.030;2023-02-01T09:14:02;31.52;;;2.95;;
12745;SDS011;6437;53.686;10.030;2023-02-01T09:17:04;27.10;;;2.25;;
12745;SDS011;6437;53.686;10.030;2023-02-01T09:20:06;42.38;;;4.30;;
12745;SDS011;6437;53.686;10.030;2023-02-01T09:26:11;43.67;;;3.92;;
12745;SDS011;6437;53.686;10.030;2023-02-01T09:29:14;47.95;;;7.25;;
12745;SDS011;6437;53.686;10.030;2023-02-01T09:32:16;41.47;;;3.72;;
12745;SDS011;6437;53.686;10.030;2023-02-01T09:35:18;44.30;;;3.83;;
12745;SDS011;6437;53.686;10.030;2023-02-01T09:38:20;29.95;;;4.47;;
12745;SDS011;6437;53.686;10.030;2023-02-01T09:41:25;46.83;;;4.95;;
12745;SDS011;6437;53.686;10.030;2023-02-01T09:44:48;32.97;;;3.63;;
12745;SDS011;6437;53.686;10.030;2023-02-01T09:48:02;58.10;;;5.55;;
12745;SDS011;6437;53.686;10.030;2023-02-01T09:51:12;35.95;;;5.10;;
12745;SDS011;6437;53.686;10.030;2023-02-01T09:54:17;38.78;;;4.28;;
12745;SDS011;6437;53.686;10.030;2023-02-01T09:57:22;47.67;;;5.00;;
12745;SDS011;6437;53.686;10.030;2023-02-01T10:00:29;45.95;;;6.18;;
12745;SDS011;6437;53.686;10.030;2023-02-01T10:03:35;41.55;;;4.93;;
12745;SDS011;6437;53.686;10.030;2023-02-01T10:06:40;37.78;;;3.83;;
12745;SDS011;6437;53.686;10.030;2023-02-01T10:09:55;47.30;;;5.25;;
12745;SDS011;6437;53.686;10.030;2023-02-01T10:13:07;49.88;;;6.78;;
12745;SDS011;6437;53.686;10.030;2023-02-01T10:16:34;37.45;;;4.43;;
12745;SDS011;6437;53.686;10.030;2023-02-01T10:19:44;30.27;;;3.72;;
12745;SDS011;6437;53.686;10.030;2023-02-01T10:22:58;46.17;;;4.78;;
12745;SDS011;6437;53.686;10.030;2023-02-01T10:26:08;46.17;;;5.45;;
12745;SDS011;6437;53.686;10.030;2023-02-01T10:29:18;32.83;;;3.67;;
12745;SDS011;6437;53.686;10.030;2023-02-01T10:32:23;44.25;;;5.32;;
12745;SDS011;6437;53.686;10.030;2023-02-01T10:35:31;33.55;;;5.00;;
12745;SDS011;6437;53.686;10.030;2023-02-01T10:38:36;27.38;;;3.25;;
12745;SDS011;6437;53.686;10.030;2023-02-01T10:41:38;34.35;;;3.60;;
12745;SDS011;6437;53.686;10.030;2023-02-01T10:44:43;41.67;;;5.40;;
12745;SDS011;6437;53.686;10.030;2023-02-01T10:47:51;41.10;;;6.55;;
12745;SDS011;6437;53.686;10.030;2023-02-01T10:50:56;40.75;;;5.38;;
12745;SDS011;6437;53.686;10.030;2023-02-01T10:54:02;42.70;;;5.28;;
12745;SDS011;6437;53.686;10.030;2023-02-01T10:57:12;39.55;;;5.90;;
12745;SDS011;6437;53.686;10.030;2023-02-01T11:00:22;46.50;;;7.57;;
12745;SDS011;6437;53.686;10.030;2023-02-01T11:03:36;45.60;;;6.53;;
12745;SDS011;6437;53.686;10.030;2023-02-01T11:06:40;35.63;;;4.40;;
12745;SDS011;6437;53.686;10.030;2023-02-01T11:09:48;46.38;;;5.88;;
12745;SDS011;6437;53.686;10.030;2023-02-01T11:12:52;39.03;;;4.25;;
12745;SDS011;6437;53.686;10.030;2023-02-01T11:18:58;36.95;;;3.80;;
12745;SDS011;6437;53.686;10.030;2023-02-01T11:22:00;31.80;;;4.38;;
12745;SDS011;6437;53.686;10.030;2023-02-01T11:25:06;48.60;;;5.97;;
12745;SDS011;6437;53.686;10.030;2023-02-01T11:28:11;35.63;;;4.53;;
12745;SDS011;6437;53.686;10.030;2023-02-01T11:31:13;42.38;;;5.47;;
12745;SDS011;6437;53.686;10.030;2023-02-01T11:34:18;32.95;;;4.97;;
12745;SDS011;6437;53.686;10.030;2023-02-01T11:37:24;37.15;;;4.20;;
12745;SDS011;6437;53.686;10.030;2023-02-01T11:40:29;36.13;;;4.85;;
12745;SDS011;6437;53.686;10.030;2023-02-01T11:43:37;29.73;;;4.38;;
12745;SDS011;6437;53.686;10.030;2023-02-01T11:46:46;44.22;;;4.90;;
12745;SDS011;6437;53.686;10.030;2023-02-01T11:49:49;25.23;;;3.42;;
12745;SDS011;6437;53.686;10.030;2023-02-01T11:52:57;39.78;;;3.90;;
12745;SDS011;6437;53.686;10.030;2023-02-01T11:56:16;28.95;;;4.30;;
12745;SDS011;6437;53.686;10.030;2023-02-01T11:59:30;34.38;;;3.85;;
12745;SDS011;6437;53.686;10.030;2023-02-01T12:06:14;33.33;;;3.42;;
12745;SDS011;6437;53.686;10.030;2023-02-01T12:09:34;21.17;;;3.28;;
12745;SDS011;6437;53.686;10.030;2023-02-01T12:12:53;25.88;;;3.15;;
12745;SDS011;6437;53.686;10.030;2023-02-01T12:16:07;20.02;;;2.38;;
12745;SDS011;6437;53.686;10.030;2023-02-01T12:19:23;30.33;;;3.05;;
12745;SDS011;6437;53.686;10.030;2023-02-01T12:22:39;29.90;;;3.47;;
12745;SDS011;6437;53.686;10.030;2023-02-01T12:25:57;24.48;;;3.03;;
12745;SDS011;6437;53.686;10.030;2023-02-01T12:29:14;19.15;;;2.22;;
12745;SDS011;6437;53.686;10.030;2023-02-01T12:32:37;22.08;;;3.38;;
12745;SDS011;6437;53.686;10.030;2023-02-01T12:35:51;19.33;;;1.10;;
12745;SDS011;6437;53.686;10.030;2023-02-01T12:39:06;8.23;;;0.70;;
12745;SDS011;6437;53.686;10.030;2023-02-01T12:42:14;7.50;;;0.95;;
12745;SDS011;6437;53.686;10.030;2023-02-01T12:45:23;7.75;;;0.40;;
12745;SDS011;6437;53.686;10.030;2023-02-01T12:48:32;5.60;;;0.43;;
12745;SDS011;6437;53.686;10.030;2023-02-01T12:51:38;10.43;;;2.38;;
12745;SDS011;6437;53.686;10.030;2023-02-01T12:54:46;2.88;;;0.30;;
12745;SDS011;6437;53.686;10.030;2023-02-01T12:57:52;2.20;;;0.30;;
12745;SDS011;6437;53.686;10.030;2023-02-01T13:00:59;3.75;;;0.30;;
12745;SDS011;6437;53.686;10.030;2023-02-01T13:04:05;5.03;;;0.20;;
12745;SDS011;6437;53.686;10.030;2023-02-01T13:07:14;3.08;;;0.20;;
12745;SDS011;6437;53.686;10.030;2023-02-01T13:10:24;2.63;;;0.20;;
12745;SDS011;6437;53.686;10.030;2023-02-01T13:13:32;4.70;;;0.30;;
12745;SDS011;6437;53.686;10.030;2023-02-01T13:16:42;8.75;;;0.35;;
12745;SDS011;6437;53.686;10.030;2023-02-01T13:19:48;6.60;;;0.35;;
12745;SDS011;6437;53.686;10.030;2023-02-01T13:22:54;6.75;;;0.45;;
12745;SDS011;6437;53.686;10.030;2023-02-01T13:26:00;5.22;;;0.30;;
12745;SDS011;6437;53.686;10.030;2023-02-01T13:29:03;1.95;;;0.15;;
12745;SDS011;6437;53.686;10.030;2023-02-01T13:32:11;3.45;;;0.25;;
12745;SDS011;6437;53.686;10.030;2023-02-01T13:35:41;13.63;;;0.28;;
12745;SDS011;6437;53.686;10.030;2023-02-01T13:42:33;14.02;;;0.75;;
12745;SDS011;6437;53.686;10.030;2023-02-01T13:45:43;7.97;;;0.30;;
12745;SDS011;6437;53.686;10.030;2023-02-01T13:48:48;5.88;;;0.20;;
12745;SDS011;6437;53.686;10.030;2023-02-01T13:51:52;8.10;;;0.25;;
12745;SDS011;6437;53.686;10.030;2023-02-01T13:55:03;8.73;;;0.30;;
12745;SDS011;6437;53.686;10.030;2023-02-01T13:58:19;7.57;;;0.82;;
12745;SDS011;6437;53.686;10.030;2023-02-01T14:04:46;6.15;;;0.40;;
12745;SDS011;6437;53.686;10.030;2023-02-01T14:08:02;5.47;;;0.68;;
12745;SDS011;6437;53.686;10.030;2023-02-01T14:11:32;8.40;;;0.70;;
12745;SDS011;6437;53.686;10.030;2023-02-01T14:14:43;17.20;;;1.52;;
12745;SDS011;6437;53.686;10.030;2023-02-01T14:17:46;11.13;;;0.40;;
12745;SDS011;6437;53.686;10.030;2023-02-01T14:20:47;5.22;;;0.50;;
12745;SDS011;6437;53.686;10.030;2023-02-01T14:23:55;6.95;;;0.50;;
12745;SDS011;6437;53.686;10.030;2023-02-01T14:26:59;10.18;;;0.88;;
12745;SDS011;6437;53.686;10.030;2023-02-01T14:33:11;13.60;;;1.20;;
12745;SDS011;6437;53.686;10.030;2023-02-01T14:36:19;17.58;;;0.90;;
12745;SDS011;6437;53.686;10.030;2023-02-01T14:39:29;7.97;;;1.38;;
12745;SDS011;6437;53.686;10.030;2023-02-01T14:42:38;16.15;;;1.05;;
12745;SDS011;6437;53.686;10.030;2023-02-01T14:45:49;9.80;;;0.40;;
12745;SDS011;6437;53.686;10.030;2023-02-01T14:48:51;10.50;;;0.75;;
12745;SDS011;6437;53.686;10.030;2023-02-01T14:51:57;15.10;;;1.60;;
12745;SDS011;6437;53.686;10.030;2023-02-01T14:55:02;14.55;;;1.20;;
12745;SDS011;6437;53.686;10.030;2023-02-01T14:58:15;19.23;;;1.25;;
12745;SDS011;6437;53.686;10.030;2023-02-01T15:01:22;13.50;;;1.33;;
12745;SDS011;6437;53.686;10.030;2023-02-01T15:04:25;20.13;;;1.55;;
12745;SDS011;6437;53.686;10.030;2023-02-01T15:07:28;25.45;;;1.52;;
12745;SDS011;6437;53.686;10.030;2023-02-01T15:10:30;13.00;;;0.85;;
12745;SDS011;6437;53.686;10.030;2023-02-01T15:13:34;14.50;;;0.77;;
12745;SDS011;6437;53.686;10.030;2023-02-01T15:16:41;15.80;;;2.15;;
12745;SDS011;6437;53.686;10.030;2023-02-01T15:19:52;17.92;;;1.17;;
12745;SDS011;6437;53.686;10.030;2023-02-01T15:22:56;15.82;;;0.85;;
12745;SDS011;6437;53.686;10.030;2023-02-01T15:25:59;17.25;;;1.52;;
12745;SDS011;6437;53.686;10.030;2023-02-01T15:29:01;15.98;;;1.50;;
12745;SDS011;6437;53.686;10.030;2023-02-01T15:32:04;29.75;;;1.50;;
12745;SDS011;6437;53.686;10.030;2023-02-01T15:38:34;29.42;;;3.15;;
12745;SDS011;6437;53.686;10.030;2023-02-01T15:41:38;35.80;;;3.15;;
12745;SDS011;6437;53.686;10.030;2023-02-01T15:44:40;21.23;;;1.70;;
12745;SDS011;6437;53.686;10.030;2023-02-01T15:47:47;20.90;;;0.95;;
12745;SDS011;6437;53.686;10.030;2023-02-01T15:50:50;25.67;;;2.42;;
12745;SDS011;6437;53.686;10.030;2023-02-01T15:53:56;40.65;;;3.60;;
12745;SDS011;6437;53.686;10.030;2023-02-01T15:57:01;35.60;;;3.95;;
12745;SDS011;6437;53.686;10.030;2023-02-01T16:00:06;30.35;;;2.22;;
12745;SDS011;6437;53.686;10.030;2023-02-01T16:06:44;27.30;;;3.38;;
12745;SDS011;6437;53.686;10.030;2023-02-01T16:09:49;27.48;;;3.95;;
12745;SDS011;6437;53.686;10.030;2023-02-01T16:12:54;40.90;;;4.43;;
12745;SDS011;6437;53.686;10.030;2023-02-01T16:16:00;31.60;;;3.85;;
12745;SDS011;6437;53.686;10.030;2023-02-01T16:19:03;44.00;;;4.45;;
12745;SDS011;6437;53.686;10.030;2023-02-01T16:22:05;31.13;;;3.72;;
12745;SDS011;6437;53.686;10.030;2023-02-01T16:25:07;41.40;;;5.30;;
12745;SDS011;6437;53.686;10.030;2023-02-01T16:28:09;46.67;;;3.17;;
12745;SDS011;6437;53.686;10.030;2023-02-01T16:31:11;30.08;;;4.07;;
12745;SDS011;6437;53.686;10.030;2023-02-01T16:34:20;53.35;;;5.85;;
12745;SDS011;6437;53.686;10.030;2023-02-01T16:37:23;39.42;;;6.25;;
12745;SDS011;6437;53.686;10.030;2023-02-01T16:40:27;49.60;;;4.45;;
12745;SDS011;6437;53.686;10.030;2023-02-01T16:43:29;35.03;;;5.80;;
12745;SDS011;6437;53.686;10.030;2023-02-01T16:46:32;53.33;;;7.72;;
12745;SDS011;6437;53.686;10.030;2023-02-01T16:49:37;65.75;;;6.18;;
12745;SDS011;6437;53.686;10.030;2023-02-01T16:52:42;45.03;;;5.43;;
12745;SDS011;6437;53.686;10.030;2023-02-01T16:55:44;52.83;;;6.93;;
12745;SDS011;6437;53.686;10.030;2023-02-01T16:58:47;48.42;;;7.00;;
12745;SDS011;6437;53.686;10.030;2023-02-01T17:01:49;45.13;;;5.93;;
12745;SDS011;6437;53.686;10.030;2023-02-01T17:04:52;55.17;;;6.32;;
12745;SDS011;6437;53.686;10.030;2023-02-01T17:07:54;54.42;;;6.47;;
12745;SDS011;6437;53.686;10.030;2023-02-01T17:10:57;44.67;;;5.43;;
12745;SDS011;6437;53.686;10.030;2023-02-01T17:14:00;48.97;;;6.35;;
12745;SDS011;6437;53.686;10.030;2023-02-01T17:17:10;54.92;;;5.90;;
12745;SDS011;6437;53.686;10.030;2023-02-01T17:20:17;48.47;;;4.97;;
12745;SDS011;6437;53.686;10.030;2023-02-01T17:23:21;55.38;;;8.07;;
12745;SDS011;6437;53.686;10.030;2023-02-01T17:26:22;51.72;;;6.55;;
12745;SDS011;6437;53.686;10.030;2023-02-01T17:29:24;48.45;;;6.53;;
12745;SDS011;6437;53.686;10.030;2023-02-01T17:32:26;53.22;;;6.55;;
12745;SDS011;6437;53.686;10.030;2023-02-01T17:35:30;45.03;;;5.53;;
12745;SDS011;6437;53.686;10.030;2023-02-01T17:38:32;43.33;;;6.95;;
12745;SDS011;6437;53.686;10.030;2023-02-01T17:41:34;53.55;;;5.82;;
12745;SDS011;6437;53.686;10.030;2023-02-01T17:44:37;47.43;;;5.37;;
12745;SDS011;6437;53.686;10.030;2023-02-01T17:47:39;50.70;;;5.82;;
12745;SDS011;6437;53.686;10.030;2023-02-01T17:50:42;45.88;;;5.13;;
12745;SDS011;6437;53.686;10.030;2023-02-01T17:53:44;64.43;;;7.25;;
12745;SDS011;6437;53.686;10.030;2023-02-01T17:56:46;46.95;;;4.88;;
12745;SDS011;6437;53.686;10.030;2023-02-01T17:59:48;43.65;;;6.63;;
12745;SDS011;6437;53.686;10.030;2023-02-01T18:02:50;66.40;;;6.85;;
12745;SDS011;6437;53.686;10.030;2023-02-01T18:05:53;49.20;;;6.18;;
12745;SDS011;6437;53.686;10.030;2023-02-01T18:08:56;47.72;;;5.35;;
12745;SDS011;6437;53.686;10.030;2023-02-01T18:11:58;50.60;;;5.07;;
12745;SDS011;6437;53.686;10.030;2023-02-01T18:15:00;39.38;;;6.93;;
12745;SDS011;6437;53.686;10.030;2023-02-01T18:18:02;59.85;;;6.50;;
12745;SDS011;6437;53.686;10.030;2023-02-01T18:21:05;51.95;;;7.88;;
12745;SDS011;6437;53.686;10.030;2023-02-01T18:24:08;53.95;;;7.70;;
12745;SDS011;6437;53.686;10.030;2023-02-01T18:27:12;28.13;;;5.45;;
12745;SDS011;6437;53.686;10.030;2023-02-01T18:30:14;54.33;;;5.55;;
12745;SDS011;6437;53.686;10.030;2023-02-01T18:33:17;53.07;;;6.23;;
12745;SDS011;6437;53.686;10.030;2023-02-01T18:36:21;56.05;;;6.70;;
12745;SDS011;6437;53.686;10.030;2023-02-01T18:39:23;39.67;;;6.28;;
12745;SDS011;6437;53.686;10.030;2023-02-01T18:42:25;50.97;;;6.00;;
12745;SDS011;6437;53.686;10.030;2023-02-01T18:45:31;60.75;;;6.65;;
12745;SDS011;6437;53.686;10.030;2023-02-01T18:48:36;40.17;;;5.57;;
12745;SDS011;6437;53.686;10.030;2023-02-01T18:51:39;58.05;;;6.55;;
12745;SDS011;6437;53.686;10.030;2023-02-01T18:54:43;31.05;;;4.38;;
12745;SDS011;6437;53.686;10.030;2023-02-01T18:57:45;40.53;;;5.07;;
12745;SDS011;6437;53.686;10.030;2023-02-01T19:00:46;55.63;;;5.13;;
12745;SDS011;6437;53.686;10.030;2023-02-01T19:03:48;33.33;;;3.65;;